sensor_id;sensor_type;location;lat;lon;timestamp;temperature;humidity
52203;DHT22;38173;52.850;6.970;2023-09-12T00:01:41;18.90;99.90
52203;DHT22;38173;52.850;6.970;2023-09-12T00:04:07;18.90;99.90
52203;DHT22;38173;52.850;6.970;2023-09-12T00:06:33;18.90;99.90
52203;DHT22;38173;52.850;6.970;2023-09-12T00:08:58;19.00;99.90
52203;DHT22;38173;52.850;6.970;2023-09-12T00:11:24;18.90;99.90
52203;DHT22;38173;52.850;6.970;2023-09-12T00:13:51;18.90;99.90
52203;DHT22;38173;52.850;6.970;2023-09-12T00:16:17;18.90;99.90
52203;DHT22;38173;52.850;6.970;2023-09-12T00:18:43;18.90;99.90
52203;DHT22;38173;52.850;6.970;2023-09-12T00:21:09;18.90;99.90
52203;DHT22;38173;52.850;6.970;2023-09-12T00:23:35;18.90;99.90
52203;DHT22;38173;52.850;6.970;2023-09-12T00:26:01;18.90;99.90
52203;DHT22;38173;52.850;6.970;2023-09-12T00:28:27;18.80;99.90
52203;DHT22;38173;52.850;6.970;2023-09-12T00:30:53;18.80;99.90
52203;DHT22;38173;52.850;6.970;2023-09-12T00:33:18;18.80;99.90
52203;DHT22;38173;52.850;6.970;2023-09-12T00:35:45;18.80;99.90
52203;DHT22;38173;52.850;6.970;2023-09-12T00:38:11;18.80;99.90
52203;DHT22;38173;52.850;6.970;2023-09-12T00:40:37;18.80;99.90
52203;DHT22;38173;52.850;6.970;2023-09-12T00:43:03;18.80;99.90
52203;DHT22;38173;52.850;6.970;2023-09-12T00:45:29;18.80;99.90
52203;DHT22;38173;52.850;6.970;2023-09-12T00:47:55;18.80;99.90
52203;DHT22;38173;52.850;6.970;2023-09-12T00:50:24;18.70;99.90
52203;DHT22;38173;52.850;6.970;2023-09-12T00:52:50;18.70;99.90
52203;DHT22;38173;52.850;6.970;2023-09-12T00:55:16;18.60;99.90
52203;DHT22;38173;52.850;6.970;2023-09-12T00:57:42;18.70;99.90
52203;DHT22;38173;52.850;6.970;2023-09-12T01:00:11;18.70;99.90
52203;DHT22;38173;52.850;6.970;2023-09-12T01:02:42;18.70;99.90
52203;DHT22;38173;52.850;6.970;2023-09-12T01:05:08;18.70;99.90
52203;DHT22;38173;52.850;6.970;2023-09-12T01:07:36;18.70;99.90
52203;DHT22;38173;52.850;6.970;2023-09-12T01:10:02;18.70;99.90
52203;DHT22;38173;52.850;6.970;2023-09-12T01:12:29;18.80;99.90
52203;DHT22;38173;52.850;6.970;2023-09-12T01:14:55;18.80;99.90
52203;DHT22;38173;52.850;6.970;2023-09-12T01:17:21;18.80;99.90
52203;DHT22;38173;52.850;6.970;2023-09-12T01:19:47;18.80;99.90
52203;DHT22;38173;52.850;6.970;2023-09-12T01:25:42;18.80;99.90
52203;DHT22;38173;52.850;6.970;2023-09-12T01:28:07;18.80;99.90
52203;DHT22;38173;52.850;6.970;2023-09-12T01:30:35;18.70;99.90
52203;DHT22;38173;52.850;6.970;2023-09-12T01:33:01;18.70;99.90
52203;DHT22;38173;52.850;6.970;2023-09-12T01:35:27;18.60;99.90
52203;DHT22;38173;52.850;6.970;2023-09-12T01:37:54;18.60;99.90
52203;DHT22;38173;52.850;6.970;2023-09-12T01:40:27;18.60;99.90
52203;DHT22;38173;52.850;6.970;2023-09-12T01:42:59;18.50;99.90
52203;DHT22;38173;52.850;6.970;2023-09-12T01:45:26;18.50;99.90
52203;DHT22;38173;52.850;6.970;2023-09-12T01:47:53;18.40;99.90
52203;DHT22;38173;52.850;6.970;2023-09-12T01:50:20;18.40;99.90
52203;DHT22;38173;52.850;6.970;2023-09-12T01:52:46;18.30;99.90
52203;DHT22;38173;52.850;6.970;2023-09-12T01:55:12;18.30;99.90
52203;DHT22;38173;52.850;6.970;2023-09-12T01:57:40;18.30;99.90
52203;DHT22;38173;52.850;6.970;2023-09-12T02:00:07;18.20;99.90
52203;DHT22;38173;52.850;6.970;2023-09-12T02:02:32;18.20;99.90
52203;DHT22;38173;52.850;6.970;2023-09-12T02:05:17;18.10;99.90
52203;DHT22;38173;52.850;6.970;2023-09-12T02:07:44;18.10;99.90
52203;DHT22;38173;52.850;6.970;2023-09-12T02:10:10;18.10;99.90
52203;DHT22;38173;52.850;6.970;2023-09-12T02:12:36;18.10;99.90
52203;DHT22;38173;52.850;6.970;2023-09-12T02:15:03;18.10;99.90
52203;DHT22;38173;52.850;6.970;2023-09-12T02:17:29;18.10;99.90
52203;DHT22;38173;52.850;6.970;2023-09-12T02:19:54;18.10;99.90
52203;DHT22;38173;52.850;6.970;2023-09-12T02:22:20;18.10;99.90
52203;DHT22;38173;52.850;6.970;2023-09-12T02:24:47;18.10;99.90
52203;DHT22;38173;52.850;6.970;2023-09-12T02:27:12;18.00;99.90
52203;DHT22;38173;52.850;6.970;2023-09-12T02:29:42;17.90;99.90
52203;DHT22;38173;52.850;6.970;2023-09-12T02:32:08;18.00;99.90
52203;DHT22;38173;52.850;6.970;2023-09-12T02:34:33;17.90;99.90
52203;DHT22;38173;52.850;6.970;2023-09-12T02:36:59;17.90;99.90
52203;DHT22;38173;52.850;6.970;2023-09-12T02:39:25;17.90;99.90
52203;DHT22;38173;52.850;6.970;2023-09-12T02:41:51;17.90;99.90
52203;DHT22;38173;52.850;6.970;2023-09-12T02:44:16;17.80;99.90
52203;DHT22;38173;52.850;6.970;2023-09-12T02:46:42;17.80;99.90
52203;DHT22;38173;52.850;6.970;2023-09-12T02:49:09;17.90;99.90
52203;DHT22;38173;52.850;6.970;2023-09-12T02:51:38;17.80;99.90
52203;DHT22;38173;52.850;6.970;2023-09-12T02:54:04;17.80;99.90
52203;DHT22;38173;52.850;6.970;2023-09-12T02:56:30;17.80;99.90
52203;DHT22;38173;52.850;6.970;2023-09-12T02:58:56;17.80;99.90
52203;DHT22;38173;52.850;6.970;2023-09-12T03:01:22;17.80;99.90
52203;DHT22;38173;52.850;6.970;2023-09-12T03:03:48;17.80;99.90
52203;DHT22;38173;52.850;6.970;2023-09-12T03:06:15;17.80;99.90
52203;DHT22;38173;52.850;6.970;2023-09-12T03:08:41;17.80;99.90
52203;DHT22;38173;52.850;6.970;2023-09-12T03:11:07;17.80;99.90
52203;DHT22;38173;52.850;6.970;2023-09-12T03:13:34;17.80;99.90
52203;DHT22;38173;52.850;6.970;2023-09-12T03:16:00;17.70;99.90
52203;DHT22;38173;52.850;6.970;2023-09-12T03:18:26;17.70;99.90
52203;DHT22;38173;52.850;6.970;2023-09-12T03:20:51;17.70;99.90
52203;DHT22;38173;52.850;6.970;2023-09-12T03:23:19;17.70;99.90
52203;DHT22;38173;52.850;6.970;2023-09-12T03:25:44;17.70;99.90
52203;DHT22;38173;52.850;6.970;2023-09-12T03:28:10;17.70;99.90
52203;DHT22;38173;52.850;6.970;2023-09-12T03:30:37;17.70;99.90
52203;DHT22;38173;52.850;6.970;2023-09-12T03:33:03;17.70;99.90
52203;DHT22;38173;52.850;6.970;2023-09-12T03:35:30;17.70;99.90
52203;DHT22;38173;52.850;6.970;2023-09-12T03:37:56;17.80;99.90
52203;DHT22;38173;52.850;6.970;2023-09-12T03:40:22;17.70;99.90
52203;DHT22;38173;52.850;6.970;2023-09-12T03:42:47;17.70;99.90
52203;DHT22;38173;52.850;6.970;2023-09-12T03:45:13;17.70;99.90
52203;DHT22;38173;52.850;6.970;2023-09-12T03:47:39;17.70;99.90
52203;DHT22;38173;52.850;6.970;2023-09-12T03:50:06;17.70;99.90
52203;DHT22;38173;52.850;6.970;2023-09-12T03:52:31;17.70;99.90
52203;DHT22;38173;52.850;6.970;2023-09-12T03:54:57;17.70;99.90
52203;DHT22;38173;52.850;6.970;2023-09-12T03:57:23;17.70;99.90
52203;DHT22;38173;52.850;6.970;2023-09-12T03:59:51;17.70;99.90
52203;DHT22;38173;52.850;6.970;2023-09-12T04:02:17;17.70;99.90
52203;DHT22;38173;52.850;6.970;2023-09-12T04:04:43;17.70;99.90
52203;DHT22;38173;52.850;6.970;2023-09-12T04:07:09;17.70;99.90
52203;DHT22;38173;52.850;6.970;2023-09-12T04:09:35;17.70;99.90
52203;DHT22;38173;52.850;6.970;2023-09-12T04:12:00;17.70;99.90
52203;DHT22;38173;52.850;6.970;2023-09-12T04:14:27;17.70;99.90
52203;DHT22;38173;52.850;6.970;2023-09-12T04:16:52;17.70;99.90
52203;DHT22;38173;52.850;6.970;2023-09-12T04:19:18;17.70;99.90
52203;DHT22;38173;52.850;6.970;2023-09-12T04:21:44;17.70;99.90
52203;DHT22;38173;52.850;6.970;2023-09-12T04:24:09;17.70;99.90
52203;DHT22;38173;52.850;6.970;2023-09-12T04:26:36;17.80;99.90
52203;DHT22;38173;52.850;6.970;2023-09-12T04:29:02;17.80;99.90
52203;DHT22;38173;52.850;6.970;2023-09-12T04:31:28;17.80;99.90
52203;DHT22;38173;52.850;6.970;2023-09-12T04:33:54;17.80;99.90
52203;DHT22;38173;52.850;6.970;2023-09-12T04:36:20;17.80;99.90
52203;DHT22;38173;52.850;6.970;2023-09-12T04:38:46;17.80;99.90
52203;DHT22;38173;52.850;6.970;2023-09-12T04:41:12;17.80;99.90
52203;DHT22;38173;52.850;6.970;2023-09-12T04:43:42;17.80;99.90
52203;DHT22;38173;52.850;6.970;2023-09-12T04:46:11;17.70;99.90
52203;DHT22;38173;52.850;6.970;2023-09-12T04:48:37;17.70;99.90
52203;DHT22;38173;52.850;6.970;2023-09-12T04:51:03;17.80;99.90
52203;DHT22;38173;52.850;6.970;2023-09-12T04:53:29;17.70;99.90
52203;DHT22;38173;52.850;6.970;2023-09-12T04:56:01;17.70;99.90
52203;DHT22;38173;52.850;6.970;2023-09-12T04:58:26;17.70;99.90
52203;DHT22;38173;52.850;6.970;2023-09-12T05:00:53;17.80;99.90
52203;DHT22;38173;52.850;6.970;2023-09-12T05:03:19;17.70;99.90
52203;DHT22;38173;52.850;6.970;2023-09-12T05:05:48;17.70;99.90
52203;DHT22;38173;52.850;6.970;2023-09-12T05:08:15;17.70;99.90
52203;DHT22;38173;52.850;6.970;2023-09-12T05:10:41;17.70;99.90
52203;DHT22;38173;52.850;6.970;2023-09-12T05:13:08;17.70;99.90
52203;DHT22;38173;52.850;6.970;2023-09-12T05:15:34;17.70;99.90
52203;DHT22;38173;52.850;6.970;2023-09-12T05:18:00;17.70;99.90
52203;DHT22;38173;52.850;6.970;2023-09-12T05:20:25;17.70;99.90
52203;DHT22;38173;52.850;6.970;2023-09-12T05:22:51;17.70;99.90
52203;DHT22;38173;52.850;6.970;2023-09-12T05:25:16;17.70;99.90
52203;DHT22;38173;52.850;6.970;2023-09-12T05:27:42;17.70;99.90
52203;DHT22;38173;52.850;6.970;2023-09-12T05:30:08;17.80;99.90
52203;DHT22;38173;52.850;6.970;2023-09-12T05:32:34;17.70;99.90
52203;DHT22;38173;52.850;6.970;2023-09-12T05:34:59;17.70;99.90
52203;DHT22;38173;52.850;6.970;2023-09-12T05:37:25;17.70;99.90
52203;DHT22;38173;52.850;6.970;2023-09-12T05:39:51;17.80;99.90
52203;DHT22;38173;52.850;6.970;2023-09-12T05:42:16;17.70;99.90
52203;DHT22;38173;52.850;6.970;2023-09-12T05:44:47;17.70;99.90
52203;DHT22;38173;52.850;6.970;2023-09-12T05:47:14;17.80;99.90
52203;DHT22;38173;52.850;6.970;2023-09-12T05:49:40;17.80;99.90
52203;DHT22;38173;52.850;6.970;2023-09-12T05:52:06;17.80;99.90
52203;DHT22;38173;52.850;6.970;2023-09-12T05:54:31;17.80;99.90
52203;DHT22;38173;52.850;6.970;2023-09-12T05:56:57;17.80;99.90
52203;DHT22;38173;52.850;6.970;2023-09-12T05:59:23;17.80;99.90
52203;DHT22;38173;52.850;6.970;2023-09-12T06:01:48;17.80;99.90
52203;DHT22;38173;52.850;6.970;2023-09-12T06:04:14;17.80;99.90
52203;DHT22;38173;52.850;6.970;2023-09-12T06:06:40;17.90;99.90
52203;DHT22;38173;52.850;6.970;2023-09-12T06:09:06;17.90;99.90
52203;DHT22;38173;52.850;6.970;2023-09-12T06:11:31;17.90;99.90
52203;DHT22;38173;52.850;6.970;2023-09-12T06:13:57;17.90;99.90
52203;DHT22;38173;52.850;6.970;2023-09-12T06:16:23;18.00;99.90
52203;DHT22;38173;52.850;6.970;2023-09-12T06:18:48;18.00;99.90
52203;DHT22;38173;52.850;6.970;2023-09-12T06:21:14;18.00;99.90
52203;DHT22;38173;52.850;6.970;2023-09-12T06:23:40;18.10;99.90
52203;DHT22;38173;52.850;6.970;2023-09-12T06:26:06;18.20;99.90
52203;DHT22;38173;52.850;6.970;2023-09-12T06:28:31;18.20;99.90
52203;DHT22;38173;52.850;6.970;2023-09-12T06:30:58;18.20;99.90
52203;DHT22;38173;52.850;6.970;2023-09-12T06:33:25;18.20;99.90
52203;DHT22;38173;52.850;6.970;2023-09-12T06:35:51;18.20;99.90
52203;DHT22;38173;52.850;6.970;2023-09-12T06:38:19;18.20;99.90
52203;DHT22;38173;52.850;6.970;2023-09-12T06:40:45;18.30;99.90
52203;DHT22;38173;52.850;6.970;2023-09-12T06:43:12;18.30;99.90
52203;DHT22;38173;52.850;6.970;2023-09-12T06:45:40;18.30;99.90
52203;DHT22;38173;52.850;6.970;2023-09-12T06:48:06;18.30;99.90
52203;DHT22;38173;52.850;6.970;2023-09-12T06:50:32;18.30;99.90
52203;DHT22;38173;52.850;6.970;2023-09-12T06:52:57;18.30;99.90
52203;DHT22;38173;52.850;6.970;2023-09-12T06:55:24;18.30;99.90
52203;DHT22;38173;52.850;6.970;2023-09-12T06:57:50;18.40;99.90
52203;DHT22;38173;52.850;6.970;2023-09-12T07:00:15;18.30;99.90
52203;DHT22;38173;52.850;6.970;2023-09-12T07:02:42;18.40;99.90
52203;DHT22;38173;52.850;6.970;2023-09-12T07:05:08;18.40;99.90
52203;DHT22;38173;52.850;6.970;2023-09-12T07:07:34;18.40;99.90
52203;DHT22;38173;52.850;6.970;2023-09-12T07:09:59;18.40;99.90
52203;DHT22;38173;52.850;6.970;2023-09-12T07:12:26;18.40;99.90
52203;DHT22;38173;52.850;6.970;2023-09-12T07:14:54;18.50;99.90
52203;DHT22;38173;52.850;6.970;2023-09-12T07:17:21;18.60;99.90
52203;DHT22;38173;52.850;6.970;2023-09-12T07:19:47;18.60;99.90
52203;DHT22;38173;52.850;6.970;2023-09-12T07:22:13;18.60;99.90
52203;DHT22;38173;52.850;6.970;2023-09-12T07:24:38;18.70;99.90
52203;DHT22;38173;52.850;6.970;2023-09-12T07:27:05;18.70;99.90
52203;DHT22;38173;52.850;6.970;2023-09-12T07:29:31;18.80;99.90
52203;DHT22;38173;52.850;6.970;2023-09-12T07:31:57;18.80;99.90
52203;DHT22;38173;52.850;6.970;2023-09-12T07:34:24;18.80;99.90
52203;DHT22;38173;52.850;6.970;2023-09-12T07:36:50;18.80;99.90
52203;DHT22;38173;52.850;6.970;2023-09-12T07:39:17;18.80;99.90
52203;DHT22;38173;52.850;6.970;2023-09-12T07:41:43;18.80;99.90
52203;DHT22;38173;52.850;6.970;2023-09-12T07:44:08;18.80;99.90
52203;DHT22;38173;52.850;6.970;2023-09-12T07:46:39;18.90;99.90
52203;DHT22;38173;52.850;6.970;2023-09-12T07:49:05;18.90;99.90
52203;DHT22;38173;52.850;6.970;2023-09-12T07:51:31;18.90;99.90
52203;DHT22;38173;52.850;6.970;2023-09-12T07:53:56;18.90;99.90
52203;DHT22;38173;52.850;6.970;2023-09-12T07:56:22;18.90;99.90
52203;DHT22;38173;52.850;6.970;2023-09-12T07:58:48;18.90;99.90
52203;DHT22;38173;52.850;6.970;2023-09-12T08:01:14;18.90;99.90
52203;DHT22;38173;52.850;6.970;2023-09-12T08:03:42;18.90;99.90
52203;DHT22;38173;52.850;6.970;2023-09-12T08:06:08;19.00;99.90
52203;DHT22;38173;52.850;6.970;2023-09-12T08:08:35;19.00;99.90
52203;DHT22;38173;52.850;6.970;2023-09-12T08:11:01;19.00;99.90
52203;DHT22;38173;52.850;6.970;2023-09-12T08:13:28;19.00;99.90
52203;DHT22;38173;52.850;6.970;2023-09-12T08:15:55;19.00;99.90
52203;DHT22;38173;52.850;6.970;2023-09-12T08:18:21;19.00;99.90
52203;DHT22;38173;52.850;6.970;2023-09-12T08:20:47;19.10;99.90
52203;DHT22;38173;52.850;6.970;2023-09-12T08:23:13;19.10;99.90
52203;DHT22;38173;52.850;6.970;2023-09-12T08:25:39;19.20;99.90
52203;DHT22;38173;52.850;6.970;2023-09-12T08:28:05;19.30;99.90
52203;DHT22;38173;52.850;6.970;2023-09-12T08:30:31;19.50;99.90
52203;DHT22;38173;52.850;6.970;2023-09-12T08:32:56;19.60;99.90
52203;DHT22;38173;52.850;6.970;2023-09-12T08:35:22;19.70;99.90
52203;DHT22;38173;52.850;6.970;2023-09-12T08:37:48;19.90;99.90
52203;DHT22;38173;52.850;6.970;2023-09-12T08:40:13;20.00;99.90
52203;DHT22;38173;52.850;6.970;2023-09-12T08:42:43;20.10;99.90
52203;DHT22;38173;52.850;6.970;2023-09-12T08:47:40;20.30;99.90
52203;DHT22;38173;52.850;6.970;2023-09-12T08:50:13;20.30;99.90
52203;DHT22;38173;52.850;6.970;2023-09-12T08:52:44;20.30;99.90
52203;DHT22;38173;52.850;6.970;2023-09-12T08:55:11;20.30;99.90
52203;DHT22;38173;52.850;6.970;2023-09-12T08:57:43;20.40;99.90
52203;DHT22;38173;52.850;6.970;2023-09-12T09:00:10;20.40;99.90
52203;DHT22;38173;52.850;6.970;2023-09-12T09:02:40;20.40;99.90
52203;DHT22;38173;52.850;6.970;2023-09-12T09:05:07;20.50;99.90
52203;DHT22;38173;52.850;6.970;2023-09-12T09:07:38;20.60;99.90
52203;DHT22;38173;52.850;6.970;2023-09-12T09:10:06;20.70;99.90
52203;DHT22;38173;52.850;6.970;2023-09-12T09:12:33;20.70;99.90
52203;DHT22;38173;52.850;6.970;2023-09-12T09:14:59;20.70;99.90
52203;DHT22;38173;52.850;6.970;2023-09-12T09:17:26;20.80;99.90
52203;DHT22;38173;52.850;6.970;2023-09-12T09:19:52;20.90;99.90
52203;DHT22;38173;52.850;6.970;2023-09-12T09:22:19;20.90;99.90
52203;DHT22;38173;52.850;6.970;2023-09-12T09:24:45;20.90;99.90
52203;DHT22;38173;52.850;6.970;2023-09-12T09:27:10;20.90;99.90
52203;DHT22;38173;52.850;6.970;2023-09-12T09:29:46;20.90;99.90
52203;DHT22;38173;52.850;6.970;2023-09-12T09:32:18;21.00;99.90
52203;DHT22;38173;52.850;6.970;2023-09-12T09:34:44;21.00;99.90
52203;DHT22;38173;52.850;6.970;2023-09-12T09:37:10;21.00;99.90
52203;DHT22;38173;52.850;6.970;2023-09-12T09:39:36;21.00;99.90
52203;DHT22;38173;52.850;6.970;2023-09-12T09:42:01;20.90;99.90
52203;DHT22;38173;52.850;6.970;2023-09-12T09:44:28;21.00;99.90
52203;DHT22;38173;52.850;6.970;2023-09-12T09:46:59;21.00;99.90
52203;DHT22;38173;52.850;6.970;2023-09-12T09:49:31;21.00;99.90
52203;DHT22;38173;52.850;6.970;2023-09-12T09:51:56;21.10;99.90
52203;DHT22;38173;52.850;6.970;2023-09-12T09:54:25;21.20;99.90
52203;DHT22;38173;52.850;6.970;2023-09-12T09:56:55;21.40;99.90
52203;DHT22;38173;52.850;6.970;2023-09-12T09:59:25;21.60;99.90
52203;DHT22;38173;52.850;6.970;2023-09-12T10:01:55;21.70;99.90
52203;DHT22;38173;52.850;6.970;2023-09-12T10:04:22;21.70;99.90
52203;DHT22;38173;52.850;6.970;2023-09-12T10:06:49;21.80;99.90
52203;DHT22;38173;52.850;6.970;2023-09-12T10:09:16;21.90;99.90
52203;DHT22;38173;52.850;6.970;2023-09-12T10:11:47;22.00;99.90
52203;DHT22;38173;52.850;6.970;2023-09-12T10:14:15;22.20;99.90
52203;DHT22;38173;52.850;6.970;2023-09-12T10:16:45;22.30;99.90
52203;DHT22;38173;52.850;6.970;2023-09-12T10:19:30;22.60;99.90
52203;DHT22;38173;52.850;6.970;2023-09-12T10:24:35;23.10;99.90
52203;DHT22;38173;52.850;6.970;2023-09-12T10:27:03;23.30;99.90
52203;DHT22;38173;52.850;6.970;2023-09-12T10:29:31;23.50;99.90
52203;DHT22;38173;52.850;6.970;2023-09-12T10:31:57;23.50;99.90
52203;DHT22;38173;52.850;6.970;2023-09-12T10:34:24;23.60;99.90
52203;DHT22;38173;52.850;6.970;2023-09-12T10:36:51;23.80;99.90
52203;DHT22;38173;52.850;6.970;2023-09-12T10:39:19;24.00;99.90
52203;DHT22;38173;52.850;6.970;2023-09-12T10:41:46;24.00;99.90
52203;DHT22;38173;52.850;6.970;2023-09-12T10:44:16;24.20;99.90
52203;DHT22;38173;52.850;6.970;2023-09-12T10:46:43;24.40;99.90
52203;DHT22;38173;52.850;6.970;2023-09-12T10:49:11;24.60;99.90
52203;DHT22;38173;52.850;6.970;2023-09-12T10:51:42;24.50;99.90
52203;DHT22;38173;52.850;6.970;2023-09-12T10:54:08;24.50;99.90
52203;DHT22;38173;52.850;6.970;2023-09-12T10:56:34;24.40;99.90
52203;DHT22;38173;52.850;6.970;2023-09-12T11:01:30;24.20;99.90
52203;DHT22;38173;52.850;6.970;2023-09-12T11:03:56;24.10;99.90
52203;DHT22;38173;52.850;6.970;2023-09-12T11:06:29;23.90;99.90
52203;DHT22;38173;52.850;6.970;2023-09-12T11:09:25;23.80;99.90
52203;DHT22;38173;52.850;6.970;2023-09-12T11:12:02;23.70;99.90
52203;DHT22;38173;52.850;6.970;2023-09-12T11:14:28;23.60;99.90
52203;DHT22;38173;52.850;6.970;2023-09-12T11:17:20;23.60;99.90
52203;DHT22;38173;52.850;6.970;2023-09-12T11:19:47;23.70;99.90
52203;DHT22;38173;52.850;6.970;2023-09-12T11:22:27;23.80;99.90
52203;DHT22;38173;52.850;6.970;2023-09-12T11:24:54;23.90;99.90
52203;DHT22;38173;52.850;6.970;2023-09-12T11:27:22;23.90;99.90
52203;DHT22;38173;52.850;6.970;2023-09-12T11:29:48;23.90;99.90
52203;DHT22;38173;52.850;6.970;2023-09-12T11:32:32;23.90;99.90
52203;DHT22;38173;52.850;6.970;2023-09-12T11:34:59;23.90;99.90
52203;DHT22;38173;52.850;6.970;2023-09-12T11:37:29;23.80;99.90
52203;DHT22;38173;52.850;6.970;2023-09-12T11:39:55;23.80;99.90
52203;DHT22;38173;52.850;6.970;2023-09-12T11:42:23;23.80;99.90
52203;DHT22;38173;52.850;6.970;2023-09-12T11:44:51;23.80;99.90
52203;DHT22;38173;52.850;6.970;2023-09-12T11:47:17;23.80;99.90
52203;DHT22;38173;52.850;6.970;2023-09-12T11:49:43;23.80;99.90
52203;DHT22;38173;52.850;6.970;2023-09-12T11:52:14;23.80;99.90
52203;DHT22;38173;52.850;6.970;2023-09-12T11:54:42;23.90;99.90
52203;DHT22;38173;52.850;6.970;2023-09-12T11:57:09;23.90;99.90
52203;DHT22;38173;52.850;6.970;2023-09-12T11:59:40;24.00;99.90
52203;DHT22;38173;52.850;6.970;2023-09-12T12:02:09;24.10;99.90
52203;DHT22;38173;52.850;6.970;2023-09-12T12:04:35;24.30;99.90
52203;DHT22;38173;52.850;6.970;2023-09-12T12:07:02;24.40;99.90
52203;DHT22;38173;52.850;6.970;2023-09-12T12:09:30;24.40;99.90
52203;DHT22;38173;52.850;6.970;2023-09-12T12:11:55;24.50;99.90
52203;DHT22;38173;52.850;6.970;2023-09-12T12:14:26;24.60;99.90
52203;DHT22;38173;52.850;6.970;2023-09-12T12:16:52;24.60;99.90
52203;DHT22;38173;52.850;6.970;2023-09-12T12:19:18;24.60;99.90
52203;DHT22;38173;52.850;6.970;2023-09-12T12:21:45;24.60;99.90
52203;DHT22;38173;52.850;6.970;2023-09-12T12:24:13;24.60;99.90
52203;DHT22;38173;52.850;6.970;2023-09-12T12:26:45;24.60;99.90
52203;DHT22;38173;52.850;6.970;2023-09-12T12:29:11;24.50;99.90
52203;DHT22;38173;52.850;6.970;2023-09-12T12:31:39;24.40;99.90
52203;DHT22;38173;52.850;6.970;2023-09-12T12:34:05;24.30;99.90
52203;DHT22;38173;52.850;6.970;2023-09-12T12:36:31;24.30;99.90
52203;DHT22;38173;52.850;6.970;2023-09-12T12:38:57;24.40;99.90
52203;DHT22;38173;52.850;6.970;2023-09-12T12:41:25;24.40;99.90
52203;DHT22;38173;52.850;6.970;2023-09-12T12:43:52;24.50;99.90
52203;DHT22;38173;52.850;6.970;2023-09-12T12:46:18;24.50;99.90
52203;DHT22;38173;52.850;6.970;2023-09-12T12:48:47;24.60;99.90
52203;DHT22;38173;52.850;6.970;2023-09-12T12:51:14;24.60;99.90
52203;DHT22;38173;52.850;6.970;2023-09-12T12:53:46;24.60;99.90
52203;DHT22;38173;52.850;6.970;2023-09-12T12:56:17;24.60;99.90
52203;DHT22;38173;52.850;6.970;2023-09-12T12:58:54;24.60;99.90
52203;DHT22;38173;52.850;6.970;2023-09-12T13:01:21;24.70;99.90
52203;DHT22;38173;52.850;6.970;2023-09-12T13:03:47;24.80;99.90
52203;DHT22;38173;52.850;6.970;2023-09-12T13:06:16;25.00;99.90
52203;DHT22;38173;52.850;6.970;2023-09-12T13:08:45;25.10;99.90
52203;DHT22;38173;52.850;6.970;2023-09-12T13:11:13;25.10;99.90
52203;DHT22;38173;52.850;6.970;2023-09-12T13:13:40;25.10;99.90
52203;DHT22;38173;52.850;6.970;2023-09-12T13:16:08;25.10;99.90
52203;DHT22;38173;52.850;6.970;2023-09-12T13:18:38;25.00;99.90
52203;DHT22;38173;52.850;6.970;2023-09-12T13:21:04;25.00;99.90
52203;DHT22;38173;52.850;6.970;2023-09-12T13:23:30;25.00;99.90
52203;DHT22;38173;52.850;6.970;2023-09-12T13:25:56;25.20;99.90
52203;DHT22;38173;52.850;6.970;2023-09-12T13:28:22;25.60;99.90
52203;DHT22;38173;52.850;6.970;2023-09-12T13:30:51;26.00;99.90
52203;DHT22;38173;52.850;6.970;2023-09-12T13:33:17;26.30;99.90
52203;DHT22;38173;52.850;6.970;2023-09-12T13:35:42;26.40;99.90
52203;DHT22;38173;52.850;6.970;2023-09-12T13:38:08;26.40;99.90
52203;DHT22;38173;52.850;6.970;2023-09-12T13:40:41;26.20;99.90
52203;DHT22;38173;52.850;6.970;2023-09-12T13:43:08;26.20;99.90
52203;DHT22;38173;52.850;6.970;2023-09-12T13:45:34;26.20;99.90
52203;DHT22;38173;52.850;6.970;2023-09-12T13:48:00;26.20;99.90
52203;DHT22;38173;52.850;6.970;2023-09-12T13:50:26;26.10;99.90
52203;DHT22;38173;52.850;6.970;2023-09-12T13:52:57;26.00;99.90
52203;DHT22;38173;52.850;6.970;2023-09-12T13:55:25;25.90;99.90
52203;DHT22;38173;52.850;6.970;2023-09-12T13:57:50;25.90;99.90
52203;DHT22;38173;52.850;6.970;2023-09-12T14:00:16;25.90;99.90
52203;DHT22;38173;52.850;6.970;2023-09-12T14:02:42;25.90;99.90
52203;DHT22;38173;52.850;6.970;2023-09-12T14:05:08;26.00;99.90
52203;DHT22;38173;52.850;6.970;2023-09-12T14:07:33;25.90;99.90
52203;DHT22;38173;52.850;6.970;2023-09-12T14:10:01;25.80;99.90
52203;DHT22;38173;52.850;6.970;2023-09-12T14:12:27;25.60;99.90
52203;DHT22;38173;52.850;6.970;2023-09-12T14:14:52;25.40;99.90
52203;DHT22;38173;52.850;6.970;2023-09-12T14:17:18;25.30;99.90
52203;DHT22;38173;52.850;6.970;2023-09-12T14:19:44;25.20;99.90
52203;DHT22;38173;52.850;6.970;2023-09-12T14:22:09;25.20;99.90
52203;DHT22;38173;52.850;6.970;2023-09-12T14:24:35;25.10;99.90
52203;DHT22;38173;52.850;6.970;2023-09-12T14:27:01;25.10;99.90
52203;DHT22;38173;52.850;6.970;2023-09-12T14:29:26;25.10;99.90
52203;DHT22;38173;52.850;6.970;2023-09-12T14:31:55;25.00;99.90
52203;DHT22;38173;52.850;6.970;2023-09-12T14:34:26;24.90;99.90
52203;DHT22;38173;52.850;6.970;2023-09-12T14:36:56;24.90;99.90
52203;DHT22;38173;52.850;6.970;2023-09-12T14:39:22;24.70;99.90
52203;DHT22;38173;52.850;6.970;2023-09-12T14:41:48;24.60;99.90
52203;DHT22;38173;52.850;6.970;2023-09-12T14:44:21;24.50;99.90
52203;DHT22;38173;52.850;6.970;2023-09-12T14:46:47;24.50;99.90
52203;DHT22;38173;52.850;6.970;2023-09-12T14:49:13;24.30;99.90
52203;DHT22;38173;52.850;6.970;2023-09-12T14:51:39;24.30;99.90
52203;DHT22;38173;52.850;6.970;2023-09-12T14:54:05;24.20;99.90
52203;DHT22;38173;52.850;6.970;2023-09-12T14:56:31;24.10;99.90
52203;DHT22;38173;52.850;6.970;2023-09-12T14:58:57;24.10;99.90
52203;DHT22;38173;52.850;6.970;2023-09-12T15:01:23;24.10;99.90
52203;DHT22;38173;52.850;6.970;2023-09-12T15:03:52;24.30;99.90
52203;DHT22;38173;52.850;6.970;2023-09-12T15:06:18;24.50;99.90
52203;DHT22;38173;52.850;6.970;2023-09-12T15:08:44;24.70;99.90
52203;DHT22;38173;52.850;6.970;2023-09-12T15:11:10;24.90;99.90
52203;DHT22;38173;52.850;6.970;2023-09-12T15:13:36;25.20;99.90
52203;DHT22;38173;52.850;6.970;2023-09-12T15:16:03;25.40;99.90
52203;DHT22;38173;52.850;6.970;2023-09-12T15:18:29;25.50;99.90
52203;DHT22;38173;52.850;6.970;2023-09-12T15:20:55;25.70;99.90
52203;DHT22;38173;52.850;6.970;2023-09-12T15:23:21;25.80;99.90
52203;DHT22;38173;52.850;6.970;2023-09-12T15:25:49;25.90;99.90
52203;DHT22;38173;52.850;6.970;2023-09-12T15:28:14;25.80;99.90
52203;DHT22;38173;52.850;6.970;2023-09-12T15:30:40;25.70;99.90
52203;DHT22;38173;52.850;6.970;2023-09-12T15:33:06;25.60;99.90
52203;DHT22;38173;52.850;6.970;2023-09-12T15:35:32;25.60;99.90
52203;DHT22;38173;52.850;6.970;2023-09-12T15:37:57;25.60;99.90
52203;DHT22;38173;52.850;6.970;2023-09-12T15:40:24;25.70;99.90